Share

Jyvaskyla, Finland

Jyvaskyla (EFJY) Elev 476 ft | 62.40 °N, 25.68 °E | Change Station

Current weather conditions updated 8 minutes ago

Clear
Clear
52 °F
Feels Like 52 °F
N
10
Wind Variable Wind from WSW
Sunrise 5:40 AM
Sunset 8:54 PM
Moon Waning Gibbous

Today is forecast to be Warmer than yesterday.

Pressure 30.21 in
Visibility -9999.0 miles
Clouds
Dew Point 36 °F
Humidity 54%
Rainfall 0.00 in
Snow Depth Not available.
UV Not available.
Pollen Not available.
Air Quality Not available.
Flu Activity Not available.
METAR EFJY 191050Z AUTO 25009KT 200V310 CAVOK 11/02 Q1023

More Conditions Fewer Conditions

Pressure 30.21 in
Visibility -9999.0 miles
Clouds
Dew Point 36 °F
Humidity 54%
Rainfall 0.00 in
Snow Depth Not available.
UV Not available.
Pollen Not available.
Air Quality Not available.
Flu Activity Not available.
METAR EFJY 191050Z AUTO 25009KT 200V310 CAVOK 11/02 Q1023

More Conditions Fewer Conditions

10-Day Weather Forecast

Almanac

Astronomy

Apr. 19, 2014 Rise Set
Actual Time 5:40 AM EEST 8:54 PM EEST
Civil Twilight 4:47 AM EEST 9:47 PM EEST
Nautical Twilight 3:31 AM EEST 11:05 PM EEST
Astronomical Twilight 1:48 AM EEST 12:43 AM EEST
Moon 1:05 AM EEST 7:52 AM EEST
Length of Visible Light 17h 00m
Length of Day
15h 14m
Tomorrow will be 6m 2s longer.
Waning Gibbous, 81% of the Moon is Illuminated
Today
Waning Gibbous
Apr 22
Last Quarter
Apr 29
New
May 6
First Quarter
May 14
Full

Yesterday's Extremes

Country Highs Country Lows

Community

  • Bleeding Hearts
    Bleeding Hearts
  • Sunset Silhouettes
    Sunset Silhouettes
  • FL sunset Perico Isle
    FL sunset Perico Isle
  • Cloudy spring view
    Cloudy spring view
  • Old barn
    Old barn

WunderPhotos

Upload Photos

1,702,681 photos uploaded!

WunderBlogs® & News

Nearby

Snow Depth

Not available.

Coastal Water Temperatures

Place Temperature
No Stations Reporting

Earthquake Activity

City Distance Mag. Time & Date
No recent earthquake activity has been reported nearby.
Minimum magnitude displayed is 2.5.

Nearby Weather Stations

Station Location Temp. Dew Point Humidity Wind Precip. Elev Updated Type
Palokka, Jyväskylä 55.9 °F 40 °F 54% SW  at  1.6 mph 0.00 in / hr 413 ft 1:57 PM EEST Rapid Fire
Laukaa, Vihtavuori 50.9 °F 36 °F 56% WSW  at  8.0 mph 0.00 in / hr 285 ft 1:58 PM EEST Rapid Fire
Jyväskylä 50.6 °F 40 °F 67% SSW  at  3.0 mph 0.00 in / hr 246 ft 1:30 PM EEST Normal
Kinkovuori, Jyväskylä 51.6 °F 38 °F 61% WNW  at  3.0 mph 0.00 in / hr 246 ft 1:55 PM EEST Normal
Muurame 51.4 °F 38 °F 59% WNW  at  3.0 mph 0.00 in / hr 397 ft 1:45 PM EEST Normal

Show More Stations Show Fewer Stations

What do you think?

We're not finished. Please let us know what you like, what you don't like, and what you are still missing.